createdAt,value
2023-01-28T00:01:16.301Z,13.35
2023-01-28T00:04:01.949Z,13.90
2023-01-28T00:06:47.472Z,13.98
2023-01-28T00:09:32.856Z,12.32
2023-01-28T00:12:18.309Z,10.75
2023-01-28T00:15:04.286Z,10.48
2023-01-28T00:17:49.647Z,10.35
2023-01-28T00:20:35.659Z,11.70
2023-01-28T00:23:21.110Z,10.43
2023-01-28T00:26:11.186Z,8.40
2023-01-28T00:31:44.821Z,9.15
2023-01-28T00:34:31.264Z,8.13
2023-01-28T00:37:16.561Z,8.70
2023-01-28T00:40:02.041Z,8.95
2023-01-28T00:42:50.802Z,13.05
2023-01-28T00:45:36.594Z,11.32
2023-01-28T00:48:21.937Z,10.85
2023-01-28T00:51:08.691Z,10.07
2023-01-28T00:53:54.207Z,10.57
2023-01-28T00:56:39.851Z,10.35
2023-01-28T00:59:25.419Z,9.55
2023-01-28T01:02:13.703Z,9.27
2023-01-28T01:04:59.641Z,9.63
2023-01-28T01:07:45.428Z,8.27
2023-01-28T01:10:30.863Z,8.32
2023-01-28T01:13:18.279Z,10.05
2023-01-28T01:16:07.334Z,9.60
2023-01-28T01:18:54.406Z,9.07
2023-01-28T01:21:40.797Z,8.05
2023-01-28T01:24:29.672Z,8.40
2023-01-28T01:27:15.328Z,7.20
2023-01-28T01:30:04.789Z,8.73
2023-01-28T01:32:52.924Z,7.50
2023-01-28T01:35:38.722Z,8.20
2023-01-28T01:38:24.424Z,7.28
2023-01-28T01:41:24.388Z,7.05
2023-01-28T01:44:48.103Z,7.95
2023-01-28T01:47:43.490Z,9.43
2023-01-28T01:50:42.957Z,7.03
2023-01-28T01:53:29.553Z,7.80
2023-01-28T01:56:19.665Z,9.15
2023-01-28T01:59:08.950Z,7.30
2023-01-28T02:01:58.155Z,7.20
2023-01-28T02:04:47.379Z,7.40
2023-01-28T02:07:34.949Z,9.57
2023-01-28T02:10:21.408Z,11.55
2023-01-28T02:13:08.873Z,11.07
2023-01-28T02:15:56.128Z,8.98
2023-01-28T02:18:41.342Z,9.30
2023-01-28T02:21:29.578Z,9.25
2023-01-28T02:24:27.480Z,8.38
2023-01-28T02:27:52.069Z,7.82
2023-01-28T02:30:59.774Z,7.68
2023-01-28T02:34:12.264Z,8.65
2023-01-28T02:37:21.370Z,8.35
2023-01-28T02:40:16.697Z,8.45
2023-01-28T02:43:04.322Z,8.60
2023-01-28T02:46:08.482Z,9.15
2023-01-28T02:48:54.474Z,12.70
2023-01-28T02:51:41.348Z,25.48
2023-01-28T02:55:00.581Z,12.95
2023-01-28T02:57:56.564Z,7.70
2023-01-28T03:01:10.580Z,8.38
2023-01-28T03:03:59.386Z,9.52
2023-01-28T03:06:50.726Z,9.85
2023-01-28T03:09:38.159Z,9.15
2023-01-28T03:12:45.877Z,8.13
2023-01-28T03:15:58.396Z,8.90
2023-01-28T03:19:07.991Z,8.43
2023-01-28T03:22:15.738Z,8.43
2023-01-28T03:25:21.366Z,8.00
2023-01-28T03:28:32.367Z,9.45
2023-01-28T03:31:41.049Z,8.95
2023-01-28T03:34:45.563Z,8.68
2023-01-28T03:37:33.092Z,11.40
2023-01-28T03:40:30.094Z,10.02
2023-01-28T03:43:15.720Z,10.25
2023-01-28T03:46:06.237Z,8.98
2023-01-28T03:48:51.621Z,8.95
2023-01-28T03:51:37.147Z,10.27
2023-01-28T03:54:22.681Z,11.60
2023-01-28T03:57:08.307Z,11.70
2023-01-28T03:59:54.210Z,9.90
2023-01-28T04:02:40.921Z,12.15
2023-01-28T04:05:29.940Z,10.75
2023-01-28T04:08:17.398Z,8.10
2023-01-28T04:11:21.605Z,8.15
2023-01-28T04:14:07.256Z,10.07
2023-01-28T04:17:01.787Z,8.32
2023-01-28T04:19:47.825Z,10.60
2023-01-28T04:22:35.284Z,11.10
2023-01-28T04:25:20.749Z,9.45
2023-01-28T04:28:07.384Z,7.70
2023-01-28T04:30:53.620Z,9.05
2023-01-28T04:34:01.535Z,11.90
2023-01-28T04:36:57.886Z,11.02
2023-01-28T04:40:03.835Z,12.68
2023-01-28T04:43:00.162Z,10.05
2023-01-28T04:46:13.132Z,8.40
2023-01-28T04:49:02.376Z,7.80
2023-01-28T04:52:11.241Z,7.45
2023-01-28T04:55:15.820Z,9.27
2023-01-28T04:58:01.575Z,8.38
2023-01-28T05:00:47.642Z,8.18
2023-01-28T05:03:36.501Z,8.30
2023-01-28T05:06:23.751Z,10.18
2023-01-28T05:09:13.171Z,9.40
2023-01-28T05:11:59.228Z,10.70
2023-01-28T05:14:45.175Z,9.98
2023-01-28T05:17:35.731Z,9.32
2023-01-28T05:20:20.983Z,13.60
2023-01-28T05:23:08.549Z,18.00
2023-01-28T05:26:01.949Z,10.68
2023-01-28T05:28:47.441Z,9.50
2023-01-28T05:31:32.837Z,10.05
2023-01-28T05:34:18.292Z,9.00
2023-01-28T05:37:05.719Z,10.13
2023-01-28T05:39:55.969Z,9.80
2023-01-28T05:42:42.150Z,9.95
2023-01-28T05:45:52.539Z,11.52
2023-01-28T05:48:56.995Z,10.25
2023-01-28T05:52:02.243Z,10.25
2023-01-28T05:54:49.900Z,8.20
2023-01-28T05:57:35.285Z,11.77
2023-01-28T06:00:21.459Z,28.17
2023-01-28T06:03:08.397Z,20.95
2023-01-28T06:05:55.068Z,12.30
2023-01-28T06:08:41.067Z,13.40
2023-01-28T06:11:30.722Z,9.73
2023-01-28T06:17:33.871Z,8.02
2023-01-28T06:20:26.590Z,7.60
2023-01-28T06:23:13.179Z,8.35
2023-01-28T06:25:59.304Z,8.20
2023-01-28T06:28:45.332Z,8.98
2023-01-28T06:31:33.828Z,9.30
2023-01-28T06:34:23.065Z,8.68
2023-01-28T06:37:10.631Z,9.48
2023-01-28T06:39:57.338Z,10.02
2023-01-28T06:42:43.206Z,10.57
2023-01-28T06:45:36.033Z,9.07
2023-01-28T06:48:22.601Z,9.23
2023-01-28T06:51:11.700Z,13.38
2023-01-28T06:53:57.201Z,10.80
2023-01-28T06:56:43.030Z,10.30
2023-01-28T06:59:29.291Z,9.60
2023-01-28T07:02:15.228Z,10.23
2023-01-28T07:05:02.576Z,10.27
2023-01-28T07:07:48.274Z,9.32
2023-01-28T07:10:33.965Z,9.32
2023-01-28T07:13:19.681Z,12.43
2023-01-28T07:16:08.383Z,12.35
2023-01-28T07:18:54.153Z,17.08
2023-01-28T07:21:39.699Z,15.00
2023-01-28T07:24:27.674Z,17.13
2023-01-28T07:27:13.342Z,13.63
2023-01-28T07:29:59.785Z,11.00
2023-01-28T07:32:45.456Z,22.38
2023-01-28T07:35:32.463Z,10.82
2023-01-28T07:38:17.964Z,12.18
2023-01-28T07:41:04.451Z,19.73
2023-01-28T07:43:51.881Z,25.63
2023-01-28T07:46:38.035Z,17.20
2023-01-28T07:49:23.810Z,18.70
2023-01-28T07:52:09.983Z,18.65
2023-01-28T07:55:04.701Z,13.00
2023-01-28T07:57:59.559Z,11.57
2023-01-28T08:00:45.220Z,9.57
2023-01-28T08:03:31.152Z,8.32
2023-01-28T08:06:38.089Z,11.73
2023-01-28T08:09:25.079Z,15.55
2023-01-28T08:12:11.111Z,10.35
2023-01-28T08:15:00.560Z,8.50
2023-01-28T08:18:23.075Z,9.40
2023-01-28T08:21:09.440Z,8.23
2023-01-28T08:23:57.127Z,10.15
2023-01-28T08:26:43.479Z,8.05
2023-01-28T08:29:29.173Z,10.43
2023-01-28T08:32:15.008Z,9.73
2023-01-28T08:35:01.251Z,8.30
2023-01-28T08:37:46.733Z,9.30
2023-01-28T08:40:33.551Z,9.45
2023-01-28T08:43:19.906Z,8.13
2023-01-28T08:46:07.811Z,9.18
2023-01-28T08:48:53.470Z,9.00
2023-01-28T08:51:38.926Z,8.70
2023-01-28T08:54:24.565Z,9.07
2023-01-28T08:57:09.976Z,9.20
2023-01-28T08:59:56.920Z,9.13
2023-01-28T09:02:42.751Z,15.15
2023-01-28T09:05:28.187Z,11.57
2023-01-28T09:08:15.442Z,10.32
2023-01-28T09:11:01.342Z,10.10
2023-01-28T09:13:47.101Z,9.50
2023-01-28T09:16:32.788Z,8.30
2023-01-28T09:19:18.352Z,8.02
2023-01-28T09:22:04.680Z,8.30
2023-01-28T09:24:50.184Z,9.05
2023-01-28T09:27:36.008Z,8.13
2023-01-28T09:30:21.748Z,7.93
2023-01-28T09:33:08.393Z,9.15
2023-01-28T09:35:53.900Z,8.15
2023-01-28T09:38:39.575Z,9.30
2023-01-28T09:41:33.239Z,14.20
2023-01-28T09:44:37.380Z,10.40
2023-01-28T09:47:30.622Z,12.40
2023-01-28T09:50:23.756Z,13.52
2023-01-28T09:53:19.583Z,10.90
2023-01-28T09:56:29.072Z,10.50
2023-01-28T09:59:23.251Z,11.30
2023-01-28T10:02:42.391Z,9.93
2023-01-28T10:05:41.244Z,10.57
2023-01-28T10:08:56.682Z,9.85
2023-01-28T10:12:03.507Z,10.55
2023-01-28T10:15:20.987Z,10.13
2023-01-28T10:18:17.239Z,9.40
2023-01-28T10:21:33.243Z,9.88
2023-01-28T10:24:41.607Z,9.57
2023-01-28T10:27:31.983Z,12.27
2023-01-28T10:30:31.510Z,10.57
2023-01-28T10:33:23.377Z,12.60
2023-01-28T10:36:09.788Z,10.68
2023-01-28T10:38:57.615Z,8.73
2023-01-28T10:41:56.743Z,8.82
2023-01-28T10:44:45.185Z,9.88
2023-01-28T10:47:41.047Z,10.50
2023-01-28T10:50:28.902Z,10.48
2023-01-28T10:53:14.438Z,10.60
2023-01-28T10:56:01.056Z,11.80
2023-01-28T10:59:28.364Z,10.15
2023-01-28T11:02:29.693Z,10.18
2023-01-28T11:05:21.220Z,11.65
2023-01-28T11:08:18.255Z,10.65
2023-01-28T11:11:14.922Z,10.48
2023-01-28T11:14:01.391Z,10.05
2023-01-28T11:16:47.861Z,10.82
2023-01-28T11:19:37.198Z,10.48
2023-01-28T11:22:43.630Z,10.68
2023-01-28T11:25:37.481Z,10.93
2023-01-28T11:28:23.350Z,12.18
2023-01-28T11:31:12.207Z,11.55
2023-01-28T11:34:00.677Z,11.13
2023-01-28T11:36:54.716Z,11.55
2023-01-28T11:39:43.259Z,10.07
2023-01-28T11:42:30.759Z,10.50
2023-01-28T11:45:19.155Z,9.60
2023-01-28T11:48:33.501Z,11.15
2023-01-28T11:51:31.611Z,11.60
2023-01-28T11:54:24.331Z,11.30
2023-01-28T11:57:23.583Z,11.75
2023-01-28T12:00:32.421Z,11.98
2023-01-28T12:03:57.293Z,12.52
2023-01-28T12:06:48.105Z,19.13
2023-01-28T12:10:02.760Z,12.75
2023-01-28T12:13:07.503Z,10.90
2023-01-28T12:16:05.786Z,10.93
2023-01-28T12:19:07.317Z,13.73
2023-01-28T12:22:48.948Z,13.88
2023-01-28T12:25:53.547Z,11.95
2023-01-28T12:28:46.156Z,14.45
2023-01-28T12:31:49.830Z,14.35
2023-01-28T12:34:34.879Z,15.10
2023-01-28T12:37:34.262Z,13.88
2023-01-28T12:40:41.328Z,14.23
2023-01-28T12:43:26.752Z,12.73
2023-01-28T12:46:29.326Z,14.32
2023-01-28T12:52:29.425Z,11.98
2023-01-28T12:55:20.741Z,12.93
2023-01-28T12:58:12.373Z,10.95
2023-01-28T13:01:05.955Z,10.45
2023-01-28T13:04:02.230Z,10.32
2023-01-28T13:07:05.420Z,11.70
2023-01-28T13:10:27.399Z,9.85
2023-01-28T13:13:32.411Z,8.82
2023-01-28T13:16:21.260Z,7.75
2023-01-28T13:19:20.115Z,9.02
2023-01-28T13:22:25.962Z,10.18
2023-01-28T13:25:18.890Z,10.23
2023-01-28T13:28:06.915Z,10.15
2023-01-28T13:31:03.228Z,9.27
2023-01-28T13:33:53.593Z,8.77
2023-01-28T13:36:44.042Z,9.95
2023-01-28T13:39:30.774Z,9.15
2023-01-28T13:42:34.855Z,9.23
2023-01-28T13:45:23.692Z,9.80
2023-01-28T13:48:24.148Z,9.80
2023-01-28T13:51:17.858Z,9.27
2023-01-28T13:54:17.373Z,17.48
2023-01-28T13:57:21.542Z,14.43
2023-01-28T14:00:13.631Z,13.45
2023-01-28T14:03:37.230Z,10.82
2023-01-28T14:06:56.671Z,11.40
2023-01-28T14:10:02.196Z,10.88
2023-01-28T14:13:20.040Z,10.02
2023-01-28T14:16:08.717Z,9.73
2023-01-28T14:18:59.684Z,9.20
2023-01-28T14:21:46.501Z,10.13
2023-01-28T14:24:34.472Z,9.73
2023-01-28T14:27:28.229Z,9.65
2023-01-28T14:30:25.616Z,9.95
2023-01-28T14:33:12.679Z,8.48
2023-01-28T14:35:58.727Z,9.77
2023-01-28T14:38:46.852Z,10.00
2023-01-28T14:41:34.624Z,10.27
2023-01-28T14:44:29.382Z,9.00
2023-01-28T14:47:48.063Z,8.15
2023-01-28T14:50:46.148Z,8.90
2023-01-28T14:53:47.507Z,8.80
2023-01-28T14:56:53.056Z,9.35
2023-01-28T14:59:48.373Z,9.10
2023-01-28T15:02:33.838Z,9.05
2023-01-28T15:05:28.680Z,8.73
2023-01-28T15:08:22.422Z,10.07
2023-01-28T15:11:15.252Z,9.55
2023-01-28T15:14:01.283Z,8.98
2023-01-28T15:16:49.417Z,9.13
2023-01-28T15:19:38.034Z,11.07
2023-01-28T15:22:28.902Z,9.75
2023-01-28T15:25:23.631Z,9.80
2023-01-28T15:28:34.564Z,8.88
2023-01-28T15:31:39.295Z,9.95
2023-01-28T15:34:30.370Z,9.43
2023-01-28T15:37:18.176Z,8.80
2023-01-28T15:40:07.317Z,8.63
2023-01-28T15:42:55.515Z,8.95
2023-01-28T15:45:48.048Z,10.50
2023-01-28T15:51:31.407Z,9.25
2023-01-28T15:54:19.701Z,10.38
2023-01-28T15:57:10.951Z,10.25
2023-01-28T16:00:07.061Z,10.98
2023-01-28T16:03:08.875Z,9.82
2023-01-28T16:06:01.119Z,8.60
2023-01-28T16:08:58.880Z,9.13
2023-01-28T16:11:45.090Z,9.77
2023-01-28T16:14:42.187Z,9.52
2023-01-28T16:17:40.139Z,9.18
2023-01-28T16:20:28.577Z,9.80
2023-01-28T16:23:22.747Z,10.93
2023-01-28T16:26:24.013Z,10.15
2023-01-28T16:29:18.583Z,10.38
2023-01-28T16:32:04.282Z,10.43
2023-01-28T16:34:49.576Z,10.68
2023-01-28T16:37:35.056Z,11.57
2023-01-28T16:40:23.231Z,11.65
2023-01-28T16:43:11.963Z,10.02
2023-01-28T16:45:57.985Z,9.98
2023-01-28T16:48:46.379Z,11.20
2023-01-28T16:51:38.783Z,9.68
2023-01-28T16:54:24.948Z,12.63
2023-01-28T16:57:21.579Z,11.52
2023-01-28T17:00:19.481Z,10.15
2023-01-28T17:03:12.658Z,10.82
2023-01-28T17:06:00.194Z,9.05
2023-01-28T17:08:45.903Z,9.82
2023-01-28T17:11:32.537Z,9.60
2023-01-28T17:14:19.015Z,9.57
2023-01-28T17:17:08.795Z,10.65
2023-01-28T17:19:54.115Z,10.13
2023-01-28T17:22:42.758Z,9.98
2023-01-28T17:25:56.161Z,10.50
2023-01-28T17:29:03.443Z,10.10
2023-01-28T17:31:50.900Z,11.02
2023-01-28T17:34:37.714Z,9.98
2023-01-28T17:37:23.749Z,10.85
2023-01-28T17:40:12.758Z,9.68
2023-01-28T17:42:58.724Z,10.52
2023-01-28T17:45:52.365Z,11.43
2023-01-28T17:48:38.580Z,10.98
2023-01-28T17:51:24.854Z,12.68
2023-01-28T17:54:11.896Z,10.80
2023-01-28T17:56:58.484Z,10.32
2023-01-28T17:59:44.693Z,11.40
2023-01-28T18:02:30.789Z,11.75
2023-01-28T18:05:17.532Z,11.95
2023-01-28T18:08:05.345Z,11.73
2023-01-28T18:10:51.411Z,9.68
2023-01-28T18:13:39.351Z,10.70
2023-01-28T18:16:24.979Z,10.85
2023-01-28T18:19:11.108Z,9.80
2023-01-28T18:22:11.298Z,9.82
2023-01-28T18:25:07.561Z,8.98
2023-01-28T18:27:53.341Z,9.50
2023-01-28T18:30:39.146Z,10.63
2023-01-28T18:33:25.115Z,10.52
2023-01-28T18:36:11.377Z,10.30
2023-01-28T18:38:56.998Z,9.43
2023-01-28T18:41:42.786Z,9.90
2023-01-28T18:44:30.272Z,10.18
2023-01-28T18:47:16.631Z,10.40
2023-01-28T18:50:15.170Z,10.07
2023-01-28T18:53:04.451Z,10.43
2023-01-28T18:55:51.860Z,11.57
2023-01-28T18:58:37.233Z,10.27
2023-01-28T19:01:22.981Z,11.13
2023-01-28T19:04:09.656Z,11.20
2023-01-28T19:06:57.523Z,11.82
2023-01-28T19:09:43.384Z,11.27
2023-01-28T19:12:29.603Z,11.48
2023-01-28T19:15:15.746Z,10.88
2023-01-28T19:18:03.417Z,10.68
2023-01-28T19:20:49.041Z,8.80
2023-01-28T19:23:49.222Z,10.82
2023-01-28T19:26:36.371Z,10.82
2023-01-28T19:29:21.945Z,11.40
2023-01-28T19:32:07.804Z,9.13
2023-01-28T19:34:54.990Z,9.68
2023-01-28T19:37:40.670Z,9.77
2023-01-28T19:40:27.708Z,10.45
2023-01-28T19:43:15.848Z,8.95
2023-01-28T19:46:03.636Z,10.25
2023-01-28T19:48:49.603Z,8.88
2023-01-28T19:51:35.273Z,8.43
2023-01-28T19:54:21.062Z,9.13
2023-01-28T19:57:06.851Z,7.78
2023-01-28T19:59:52.573Z,9.35
2023-01-28T20:02:38.674Z,9.40
2023-01-28T20:05:26.478Z,10.73
2023-01-28T20:08:12.194Z,10.00
2023-01-28T20:11:04.899Z,10.07
2023-01-28T20:13:52.268Z,10.68
2023-01-28T20:16:40.556Z,11.85
2023-01-28T20:19:30.043Z,11.82
2023-01-28T20:22:21.689Z,14.20
2023-01-28T20:25:08.883Z,11.13
2023-01-28T20:27:55.558Z,11.98
2023-01-28T20:30:43.782Z,12.00
2023-01-28T20:33:31.712Z,9.88
2023-01-28T20:36:18.049Z,9.48
2023-01-28T20:39:03.632Z,12.32
2023-01-28T20:41:50.003Z,9.70
2023-01-28T20:44:36.049Z,8.82
2023-01-28T20:47:24.553Z,9.32
2023-01-28T20:50:10.829Z,9.23
2023-01-28T20:52:56.601Z,9.32
2023-01-28T20:55:42.451Z,10.23
2023-01-28T20:58:27.740Z,10.57
2023-01-28T21:01:22.548Z,8.52
2023-01-28T21:04:10.775Z,10.18
2023-01-28T21:06:57.364Z,9.68
2023-01-28T21:09:43.081Z,8.77
2023-01-28T21:12:31.576Z,11.57
2023-01-28T21:15:18.625Z,10.02
2023-01-28T21:21:28.894Z,9.80
2023-01-28T21:24:16.710Z,8.07
2023-01-28T21:27:03.158Z,9.90
2023-01-28T21:29:48.747Z,8.55
2023-01-28T21:32:34.285Z,9.38
2023-01-28T21:35:20.178Z,9.55
2023-01-28T21:38:15.769Z,8.63
2023-01-28T21:41:13.994Z,9.10
2023-01-28T21:43:59.893Z,10.80
2023-01-28T21:46:48.132Z,9.77
2023-01-28T21:49:34.753Z,27.50
2023-01-28T21:52:24.337Z,20.38
2023-01-28T21:55:10.411Z,11.18
2023-01-28T21:58:22.865Z,9.35
2023-01-28T22:01:15.308Z,9.07
2023-01-28T22:04:14.764Z,8.65
2023-01-28T22:07:11.184Z,8.45
2023-01-28T22:10:01.695Z,7.90
2023-01-28T22:12:54.457Z,10.40
2023-01-28T22:15:51.728Z,8.38
2023-01-28T22:18:38.745Z,10.07
2023-01-28T22:21:25.269Z,10.02
2023-01-28T22:24:16.355Z,8.93
2023-01-28T22:27:01.921Z,9.65
2023-01-28T22:29:47.514Z,8.90
2023-01-28T22:32:33.066Z,10.23
2023-01-28T22:35:18.578Z,8.63
2023-01-28T22:38:03.896Z,10.20
2023-01-28T22:40:49.732Z,9.55
2023-01-28T22:43:35.929Z,8.93
2023-01-28T22:46:23.379Z,10.75
2023-01-28T22:49:25.687Z,10.85
2023-01-28T22:52:11.061Z,13.95
2023-01-28T22:54:56.628Z,19.30
2023-01-28T22:57:42.032Z,16.08
2023-01-28T23:00:28.227Z,21.88
2023-01-28T23:03:13.758Z,20.13
2023-01-28T23:06:00.668Z,22.30
2023-01-28T23:08:47.112Z,22.38
2023-01-28T23:11:33.403Z,26.00
2023-01-28T23:14:37.683Z,22.60
2023-01-28T23:17:41.636Z,17.20
2023-01-28T23:20:45.734Z,18.17
2023-01-28T23:24:00.306Z,15.52
2023-01-28T23:26:57.120Z,17.67
2023-01-28T23:29:42.807Z,16.52
2023-01-28T23:32:28.697Z,16.75
2023-01-28T23:35:15.743Z,18.27
2023-01-28T23:38:07.106Z,14.85
2023-01-28T23:40:52.580Z,12.05
2023-01-28T23:43:38.172Z,12.68
2023-01-28T23:46:37.837Z,12.52
2023-01-28T23:49:24.998Z,10.95
2023-01-28T23:52:10.463Z,13.60
2023-01-28T23:54:56.251Z,13.85
2023-01-28T23:57:41.999Z,12.63
